sensor_id;sensor_type;location;lat;lon;timestamp;P1;durP1;ratioP1;P2;durP2;ratioP2
68976;SDS011;56029;52.568;13.588;2022-09-28T00:02:00;6.50;;;3.25;;
68976;SDS011;56029;52.568;13.588;2022-09-28T00:04:26;8.40;;;3.40;;
68976;SDS011;56029;52.568;13.588;2022-09-28T00:06:51;6.17;;;2.97;;
68976;SDS011;56029;52.568;13.588;2022-09-28T00:09:17;6.13;;;3.10;;
68976;SDS011;56029;52.568;13.588;2022-09-28T00:11:46;6.55;;;3.40;;
68976;SDS011;56029;52.568;13.588;2022-09-28T00:14:11;6.00;;;3.20;;
68976;SDS011;56029;52.568;13.588;2022-09-28T00:16:41;6.35;;;3.20;;
68976;SDS011;56029;52.568;13.588;2022-09-28T00:19:08;8.95;;;3.72;;
68976;SDS011;56029;52.568;13.588;2022-09-28T00:21:35;6.75;;;2.90;;
68976;SDS011;56029;52.568;13.588;2022-09-28T00:24:03;6.40;;;3.13;;
68976;SDS011;56029;52.568;13.588;2022-09-28T00:26:53;7.00;;;3.17;;
68976;SDS011;56029;52.568;13.588;2022-09-28T00:29:25;6.53;;;2.97;;
68976;SDS011;56029;52.568;13.588;2022-09-28T00:31:54;7.07;;;3.58;;
68976;SDS011;56029;52.568;13.588;2022-09-28T00:34:27;6.80;;;3.17;;
68976;SDS011;56029;52.568;13.588;2022-09-28T00:36:56;6.38;;;2.97;;
68976;SDS011;56029;52.568;13.588;2022-09-28T00:39:22;7.43;;;3.33;;
68976;SDS011;56029;52.568;13.588;2022-09-28T00:41:48;6.75;;;3.00;;
68976;SDS011;56029;52.568;13.588;2022-09-28T00:46:49;8.90;;;3.03;;
68976;SDS011;56029;52.568;13.588;2022-09-28T00:49:18;6.60;;;3.17;;
68976;SDS011;56029;52.568;13.588;2022-09-28T00:51:51;6.70;;;3.10;;
68976;SDS011;56029;52.568;13.588;2022-09-28T00:54:17;7.27;;;3.20;;
68976;SDS011;56029;52.568;13.588;2022-09-28T00:56:43;6.23;;;3.10;;
68976;SDS011;56029;52.568;13.588;2022-09-28T00:59:11;6.90;;;3.28;;
68976;SDS011;56029;52.568;13.588;2022-09-28T01:01:38;7.35;;;3.03;;
68976;SDS011;56029;52.568;13.588;2022-09-28T01:04:03;7.00;;;2.90;;
68976;SDS011;56029;52.568;13.588;2022-09-28T01:06:31;6.28;;;3.10;;
68976;SDS011;56029;52.568;13.588;2022-09-28T01:08:59;7.15;;;2.85;;
68976;SDS011;56029;52.568;13.588;2022-09-28T01:11:32;7.88;;;3.05;;
68976;SDS011;56029;52.568;13.588;2022-09-28T01:13:59;6.28;;;3.20;;
68976;SDS011;56029;52.568;13.588;2022-09-28T01:16:38;6.17;;;3.10;;
68976;SDS011;56029;52.568;13.588;2022-09-28T01:24:42;5.47;;;2.80;;
68976;SDS011;56029;52.568;13.588;2022-09-28T01:27:18;7.07;;;3.15;;
68976;SDS011;56029;52.568;13.588;2022-09-28T01:30:03;7.70;;;3.17;;
68976;SDS011;56029;52.568;13.588;2022-09-28T01:36:20;6.68;;;3.00;;
68976;SDS011;56029;52.568;13.588;2022-09-28T01:38:29;7.32;;;3.17;;
68976;SDS011;56029;52.568;13.588;2022-09-28T01:41:01;7.53;;;3.30;;
68976;SDS011;56029;52.568;13.588;2022-09-28T01:43:30;5.73;;;2.80;;
68976;SDS011;56029;52.568;13.588;2022-09-28T01:46:09;6.22;;;2.90;;
68976;SDS011;56029;52.568;13.588;2022-09-28T01:48:53;6.93;;;3.15;;
68976;SDS011;56029;52.568;13.588;2022-09-28T01:51:26;6.18;;;2.90;;
68976;SDS011;56029;52.568;13.588;2022-09-28T01:53:57;7.03;;;3.17;;
68976;SDS011;56029;52.568;13.588;2022-09-28T01:56:36;6.60;;;3.20;;
68976;SDS011;56029;52.568;13.588;2022-09-28T01:59:08;6.38;;;3.10;;
68976;SDS011;56029;52.568;13.588;2022-09-28T02:01:42;7.40;;;3.10;;
68976;SDS011;56029;52.568;13.588;2022-09-28T02:04:16;5.82;;;2.72;;
68976;SDS011;56029;52.568;13.588;2022-09-28T02:06:57;6.85;;;3.20;;
68976;SDS011;56029;52.568;13.588;2022-09-28T02:09:30;7.67;;;3.20;;
68976;SDS011;56029;52.568;13.588;2022-09-28T02:12:04;6.38;;;3.08;;
68976;SDS011;56029;52.568;13.588;2022-09-28T02:14:36;5.82;;;2.65;;
68976;SDS011;56029;52.568;13.588;2022-09-28T02:17:04;7.10;;;3.00;;
68976;SDS011;56029;52.568;13.588;2022-09-28T02:19:30;6.53;;;2.87;;
68976;SDS011;56029;52.568;13.588;2022-09-28T02:24:41;6.43;;;2.80;;
68976;SDS011;56029;52.568;13.588;2022-09-28T02:27:16;6.30;;;2.90;;
68976;SDS011;56029;52.568;13.588;2022-09-28T02:29:47;6.32;;;2.78;;
68976;SDS011;56029;52.568;13.588;2022-09-28T02:32:13;6.60;;;2.70;;
68976;SDS011;56029;52.568;13.588;2022-09-28T02:34:39;6.72;;;2.70;;
68976;SDS011;56029;52.568;13.588;2022-09-28T02:37:05;6.37;;;2.93;;
68976;SDS011;56029;52.568;13.588;2022-09-28T02:39:30;5.80;;;2.90;;
68976;SDS011;56029;52.568;13.588;2022-09-28T02:44:57;6.60;;;2.88;;
68976;SDS011;56029;52.568;13.588;2022-09-28T02:56:04;6.32;;;2.90;;
68976;SDS011;56029;52.568;13.588;2022-09-28T03:01:28;6.22;;;3.13;;
68976;SDS011;56029;52.568;13.588;2022-09-28T03:06:45;6.63;;;3.10;;
68976;SDS011;56029;52.568;13.588;2022-09-28T03:11:58;8.63;;;3.30;;
68976;SDS011;56029;52.568;13.588;2022-09-28T03:14:27;9.35;;;3.38;;
68976;SDS011;56029;52.568;13.588;2022-09-28T03:16:53;7.30;;;3.37;;
68976;SDS011;56029;52.568;13.588;2022-09-28T03:19:20;8.43;;;3.38;;
68976;SDS011;56029;52.568;13.588;2022-09-28T03:21:49;8.87;;;3.50;;
68976;SDS011;56029;52.568;13.588;2022-09-28T03:24:14;8.90;;;3.70;;
68976;SDS011;56029;52.568;13.588;2022-09-28T03:26:40;7.83;;;3.90;;
68976;SDS011;56029;52.568;13.588;2022-09-28T03:29:05;8.27;;;3.57;;
68976;SDS011;56029;52.568;13.588;2022-09-28T03:31:31;7.03;;;3.15;;
68976;SDS011;56029;52.568;13.588;2022-09-28T03:33:57;9.20;;;3.33;;
68976;SDS011;56029;52.568;13.588;2022-09-28T03:36:22;8.80;;;3.67;;
68976;SDS011;56029;52.568;13.588;2022-09-28T03:38:47;8.40;;;3.78;;
68976;SDS011;56029;52.568;13.588;2022-09-28T03:41:16;9.67;;;4.03;;
68976;SDS011;56029;52.568;13.588;2022-09-28T03:43:41;8.25;;;3.97;;
68976;SDS011;56029;52.568;13.588;2022-09-28T03:46:07;8.90;;;3.63;;
68976;SDS011;56029;52.568;13.588;2022-09-28T03:48:33;9.53;;;3.83;;
68976;SDS011;56029;52.568;13.588;2022-09-28T03:51:00;8.07;;;3.88;;
68976;SDS011;56029;52.568;13.588;2022-09-28T03:53:27;8.63;;;3.65;;
68976;SDS011;56029;52.568;13.588;2022-09-28T03:55:54;9.80;;;4.20;;
68976;SDS011;56029;52.568;13.588;2022-09-28T03:58:20;9.03;;;3.87;;
68976;SDS011;56029;52.568;13.588;2022-09-28T04:00:50;9.25;;;4.00;;
68976;SDS011;56029;52.568;13.588;2022-09-28T04:03:16;8.15;;;3.75;;
68976;SDS011;56029;52.568;13.588;2022-09-28T04:05:48;8.80;;;4.30;;
68976;SDS011;56029;52.568;13.588;2022-09-28T04:08:14;9.65;;;4.53;;
68976;SDS011;56029;52.568;13.588;2022-09-28T04:10:40;8.95;;;3.95;;
68976;SDS011;56029;52.568;13.588;2022-09-28T04:13:05;8.97;;;3.83;;
68976;SDS011;56029;52.568;13.588;2022-09-28T04:15:31;10.63;;;4.30;;
68976;SDS011;56029;52.568;13.588;2022-09-28T04:17:58;9.43;;;4.03;;
68976;SDS011;56029;52.568;13.588;2022-09-28T04:20:30;9.70;;;4.07;;
68976;SDS011;56029;52.568;13.588;2022-09-28T04:22:57;8.77;;;4.03;;
68976;SDS011;56029;52.568;13.588;2022-09-28T04:25:22;9.48;;;3.92;;
68976;SDS011;56029;52.568;13.588;2022-09-28T04:27:48;9.43;;;4.13;;
68976;SDS011;56029;52.568;13.588;2022-09-28T04:30:32;10.35;;;4.10;;
68976;SDS011;56029;52.568;13.588;2022-09-28T04:32:59;9.53;;;4.10;;
68976;SDS011;56029;52.568;13.588;2022-09-28T04:35:24;9.77;;;4.40;;
68976;SDS011;56029;52.568;13.588;2022-09-28T04:37:50;9.30;;;4.23;;
68976;SDS011;56029;52.568;13.588;2022-09-28T04:40:16;11.25;;;4.63;;
68976;SDS011;56029;52.568;13.588;2022-09-28T04:42:41;9.30;;;4.27;;
68976;SDS011;56029;52.568;13.588;2022-09-28T04:45:07;9.45;;;4.35;;
68976;SDS011;56029;52.568;13.588;2022-09-28T04:47:33;10.23;;;4.17;;
68976;SDS011;56029;52.568;13.588;2022-09-28T04:49:58;9.35;;;4.32;;
68976;SDS011;56029;52.568;13.588;2022-09-28T04:52:24;9.03;;;4.27;;
68976;SDS011;56029;52.568;13.588;2022-09-28T04:54:51;12.32;;;4.40;;
68976;SDS011;56029;52.568;13.588;2022-09-28T04:57:16;12.90;;;5.43;;
68976;SDS011;56029;52.568;13.588;2022-09-28T04:59:42;14.90;;;7.05;;
68976;SDS011;56029;52.568;13.588;2022-09-28T05:02:08;15.23;;;7.00;;
68976;SDS011;56029;52.568;13.588;2022-09-28T05:04:34;13.18;;;6.70;;
68976;SDS011;56029;52.568;13.588;2022-09-28T05:07:00;13.47;;;5.73;;
68976;SDS011;56029;52.568;13.588;2022-09-28T05:09:25;12.48;;;5.65;;
68976;SDS011;56029;52.568;13.588;2022-09-28T05:11:51;11.57;;;5.00;;
68976;SDS011;56029;52.568;13.588;2022-09-28T05:14:17;10.75;;;4.63;;
68976;SDS011;56029;52.568;13.588;2022-09-28T05:16:46;11.90;;;5.10;;
68976;SDS011;56029;52.568;13.588;2022-09-28T05:19:11;10.73;;;5.00;;
68976;SDS011;56029;52.568;13.588;2022-09-28T05:21:37;11.88;;;4.72;;
68976;SDS011;56029;52.568;13.588;2022-09-28T05:24:03;10.93;;;5.07;;
68976;SDS011;56029;52.568;13.588;2022-09-28T05:26:31;12.30;;;5.03;;
68976;SDS011;56029;52.568;13.588;2022-09-28T05:28:58;12.05;;;5.28;;
68976;SDS011;56029;52.568;13.588;2022-09-28T05:31:23;11.73;;;5.27;;
68976;SDS011;56029;52.568;13.588;2022-09-28T05:33:51;12.05;;;5.38;;
68976;SDS011;56029;52.568;13.588;2022-09-28T05:36:18;11.35;;;5.15;;
68976;SDS011;56029;52.568;13.588;2022-09-28T05:38:44;11.60;;;5.35;;
68976;SDS011;56029;52.568;13.588;2022-09-28T05:41:09;13.30;;;6.00;;
68976;SDS011;56029;52.568;13.588;2022-09-28T05:43:35;11.82;;;5.53;;
68976;SDS011;56029;52.568;13.588;2022-09-28T05:46:01;12.27;;;5.43;;
68976;SDS011;56029;52.568;13.588;2022-09-28T05:48:26;13.67;;;5.30;;
68976;SDS011;56029;52.568;13.588;2022-09-28T05:50:52;12.23;;;5.32;;
68976;SDS011;56029;52.568;13.588;2022-09-28T05:53:18;11.82;;;5.53;;
68976;SDS011;56029;52.568;13.588;2022-09-28T05:55:44;12.27;;;5.20;;
68976;SDS011;56029;52.568;13.588;2022-09-28T05:58:10;11.60;;;5.30;;
68976;SDS011;56029;52.568;13.588;2022-09-28T06:00:35;11.80;;;5.43;;
68976;SDS011;56029;52.568;13.588;2022-09-28T06:03:02;12.05;;;5.22;;
68976;SDS011;56029;52.568;13.588;2022-09-28T06:05:30;11.68;;;4.95;;
68976;SDS011;56029;52.568;13.588;2022-09-28T06:07:59;11.40;;;5.37;;
68976;SDS011;56029;52.568;13.588;2022-09-28T06:10:25;12.68;;;5.40;;
68976;SDS011;56029;52.568;13.588;2022-09-28T06:12:53;12.40;;;5.15;;
68976;SDS011;56029;52.568;13.588;2022-09-28T06:15:19;11.40;;;5.35;;
68976;SDS011;56029;52.568;13.588;2022-09-28T06:17:45;11.55;;;4.93;;
68976;SDS011;56029;52.568;13.588;2022-09-28T06:20:11;12.80;;;5.30;;
68976;SDS011;56029;52.568;13.588;2022-09-28T06:22:37;11.65;;;5.38;;
68976;SDS011;56029;52.568;13.588;2022-09-28T06:25:03;11.33;;;4.80;;
68976;SDS011;56029;52.568;13.588;2022-09-28T06:27:30;11.77;;;5.18;;
68976;SDS011;56029;52.568;13.588;2022-09-28T06:29:55;10.45;;;4.95;;
68976;SDS011;56029;52.568;13.588;2022-09-28T06:32:21;10.17;;;5.00;;
68976;SDS011;56029;52.568;13.588;2022-09-28T06:34:46;10.23;;;4.80;;
68976;SDS011;56029;52.568;13.588;2022-09-28T06:37:12;9.83;;;5.00;;
68976;SDS011;56029;52.568;13.588;2022-09-28T06:39:37;12.85;;;5.55;;
68976;SDS011;56029;52.568;13.588;2022-09-28T06:42:03;11.03;;;5.40;;
68976;SDS011;56029;52.568;13.588;2022-09-28T06:44:29;11.32;;;5.30;;
68976;SDS011;56029;52.568;13.588;2022-09-28T06:46:56;10.55;;;5.07;;
68976;SDS011;56029;52.568;13.588;2022-09-28T06:49:22;12.87;;;5.30;;
68976;SDS011;56029;52.568;13.588;2022-09-28T06:51:47;10.38;;;5.20;;
68976;SDS011;56029;52.568;13.588;2022-09-28T06:54:13;10.53;;;5.20;;
68976;SDS011;56029;52.568;13.588;2022-09-28T06:56:39;11.40;;;5.30;;
68976;SDS011;56029;52.568;13.588;2022-09-28T06:59:04;12.33;;;5.30;;
68976;SDS011;56029;52.568;13.588;2022-09-28T07:01:30;12.10;;;5.77;;
68976;SDS011;56029;52.568;13.588;2022-09-28T07:03:55;11.30;;;4.80;;
68976;SDS011;56029;52.568;13.588;2022-09-28T07:06:22;12.40;;;5.90;;
68976;SDS011;56029;52.568;13.588;2022-09-28T07:08:48;11.10;;;4.83;;
68976;SDS011;56029;52.568;13.588;2022-09-28T07:11:14;11.73;;;5.15;;
68976;SDS011;56029;52.568;13.588;2022-09-28T07:13:40;11.52;;;5.30;;
68976;SDS011;56029;52.568;13.588;2022-09-28T07:16:05;11.80;;;6.03;;
68976;SDS011;56029;52.568;13.588;2022-09-28T07:18:31;10.20;;;5.10;;
68976;SDS011;56029;52.568;13.588;2022-09-28T07:20:57;11.83;;;5.53;;
68976;SDS011;56029;52.568;13.588;2022-09-28T07:23:23;11.15;;;5.63;;
68976;SDS011;56029;52.568;13.588;2022-09-28T07:25:50;11.53;;;5.40;;
68976;SDS011;56029;52.568;13.588;2022-09-28T07:28:16;11.82;;;6.07;;
68976;SDS011;56029;52.568;13.588;2022-09-28T07:30:41;13.13;;;5.73;;
68976;SDS011;56029;52.568;13.588;2022-09-28T07:33:09;11.75;;;5.85;;
68976;SDS011;56029;52.568;13.588;2022-09-28T07:35:40;12.30;;;5.70;;
68976;SDS011;56029;52.568;13.588;2022-09-28T07:38:06;12.73;;;5.72;;
68976;SDS011;56029;52.568;13.588;2022-09-28T07:40:33;12.57;;;5.75;;
68976;SDS011;56029;52.568;13.588;2022-09-28T07:43:18;11.63;;;5.53;;
68976;SDS011;56029;52.568;13.588;2022-09-28T07:45:45;16.05;;;6.10;;
68976;SDS011;56029;52.568;13.588;2022-09-28T07:48:18;12.13;;;6.00;;
68976;SDS011;56029;52.568;13.588;2022-09-28T07:50:47;13.00;;;5.80;;
68976;SDS011;56029;52.568;13.588;2022-09-28T07:53:16;12.80;;;6.50;;
68976;SDS011;56029;52.568;13.588;2022-09-28T07:55:48;11.65;;;5.93;;
68976;SDS011;56029;52.568;13.588;2022-09-28T07:58:17;13.43;;;6.70;;
68976;SDS011;56029;52.568;13.588;2022-09-28T08:00:44;13.43;;;6.37;;
68976;SDS011;56029;52.568;13.588;2022-09-28T08:03:12;12.90;;;6.25;;
68976;SDS011;56029;52.568;13.588;2022-09-28T08:05:38;13.38;;;6.60;;
68976;SDS011;56029;52.568;13.588;2022-09-28T08:08:05;13.05;;;6.43;;
68976;SDS011;56029;52.568;13.588;2022-09-28T08:10:30;13.17;;;6.73;;
68976;SDS011;56029;52.568;13.588;2022-09-28T08:12:57;12.82;;;6.35;;
68976;SDS011;56029;52.568;13.588;2022-09-28T08:15:27;11.65;;;6.28;;
68976;SDS011;56029;52.568;13.588;2022-09-28T08:17:54;12.82;;;7.25;;
68976;SDS011;56029;52.568;13.588;2022-09-28T08:20:19;13.13;;;7.43;;
68976;SDS011;56029;52.568;13.588;2022-09-28T08:23:04;13.65;;;7.95;;
68976;SDS011;56029;52.568;13.588;2022-09-28T08:25:34;13.77;;;7.50;;
68976;SDS011;56029;52.568;13.588;2022-09-28T08:28:05;13.03;;;7.37;;
68976;SDS011;56029;52.568;13.588;2022-09-28T08:30:31;15.32;;;7.88;;
68976;SDS011;56029;52.568;13.588;2022-09-28T08:32:57;12.95;;;7.35;;
68976;SDS011;56029;52.568;13.588;2022-09-28T08:35:23;11.53;;;7.23;;
68976;SDS011;56029;52.568;13.588;2022-09-28T08:37:50;14.13;;;7.70;;
68976;SDS011;56029;52.568;13.588;2022-09-28T08:40:20;12.60;;;7.47;;
68976;SDS011;56029;52.568;13.588;2022-09-28T08:42:57;12.88;;;7.60;;
68976;SDS011;56029;52.568;13.588;2022-09-28T08:45:28;13.07;;;7.20;;
68976;SDS011;56029;52.568;13.588;2022-09-28T08:48:00;12.57;;;7.18;;
68976;SDS011;56029;52.568;13.588;2022-09-28T08:50:53;14.32;;;7.53;;
68976;SDS011;56029;52.568;13.588;2022-09-28T08:56:03;12.27;;;6.15;;
68976;SDS011;56029;52.568;13.588;2022-09-28T08:58:35;11.50;;;5.40;;
68976;SDS011;56029;52.568;13.588;2022-09-28T09:01:04;12.40;;;5.72;;
68976;SDS011;56029;52.568;13.588;2022-09-28T09:03:33;10.10;;;5.30;;
68976;SDS011;56029;52.568;13.588;2022-09-28T09:08:37;10.25;;;5.50;;
68976;SDS011;56029;52.568;13.588;2022-09-28T09:11:17;9.10;;;5.40;;
68976;SDS011;56029;52.568;13.588;2022-09-28T09:14:06;10.30;;;5.25;;
68976;SDS011;56029;52.568;13.588;2022-09-28T09:16:43;9.13;;;5.32;;
68976;SDS011;56029;52.568;13.588;2022-09-28T09:19:26;11.15;;;6.10;;
68976;SDS011;56029;52.568;13.588;2022-09-28T09:22:06;11.18;;;6.05;;
68976;SDS011;56029;52.568;13.588;2022-09-28T09:24:47;9.73;;;5.20;;
68976;SDS011;56029;52.568;13.588;2022-09-28T09:30:08;9.43;;;5.32;;
68976;SDS011;56029;52.568;13.588;2022-09-28T09:35:27;8.57;;;4.80;;
68976;SDS011;56029;52.568;13.588;2022-09-28T09:39:00;9.43;;;5.23;;
68976;SDS011;56029;52.568;13.588;2022-09-28T09:46:41;8.50;;;4.70;;
68976;SDS011;56029;52.568;13.588;2022-09-28T09:49:23;7.88;;;4.40;;
68976;SDS011;56029;52.568;13.588;2022-09-28T09:51:59;6.83;;;4.13;;
68976;SDS011;56029;52.568;13.588;2022-09-28T09:57:19;8.07;;;4.20;;
68976;SDS011;56029;52.568;13.588;2022-09-28T09:59:48;7.63;;;4.50;;
68976;SDS011;56029;52.568;13.588;2022-09-28T10:04:53;8.75;;;4.40;;
68976;SDS011;56029;52.568;13.588;2022-09-28T10:07:52;7.45;;;4.10;;
68976;SDS011;56029;52.568;13.588;2022-09-28T10:10:33;8.95;;;4.32;;
68976;SDS011;56029;52.568;13.588;2022-09-28T10:13:01;8.88;;;4.93;;
68976;SDS011;56029;52.568;13.588;2022-09-28T10:15:28;7.13;;;4.20;;
68976;SDS011;56029;52.568;13.588;2022-09-28T10:17:56;8.00;;;4.20;;
68976;SDS011;56029;52.568;13.588;2022-09-28T10:20:25;8.63;;;4.22;;
68976;SDS011;56029;52.568;13.588;2022-09-28T10:22:55;7.60;;;4.15;;
68976;SDS011;56029;52.568;13.588;2022-09-28T10:25:22;6.53;;;3.88;;
68976;SDS011;56029;52.568;13.588;2022-09-28T10:27:48;7.37;;;3.90;;
68976;SDS011;56029;52.568;13.588;2022-09-28T10:30:18;6.13;;;3.83;;
68976;SDS011;56029;52.568;13.588;2022-09-28T10:32:48;6.78;;;3.80;;
68976;SDS011;56029;52.568;13.588;2022-09-28T10:37:53;6.38;;;3.33;;
68976;SDS011;56029;52.568;13.588;2022-09-28T10:40:40;6.47;;;3.03;;
68976;SDS011;56029;52.568;13.588;2022-09-28T10:43:16;5.28;;;2.60;;
68976;SDS011;56029;52.568;13.588;2022-09-28T10:45:42;3.92;;;2.50;;
68976;SDS011;56029;52.568;13.588;2022-09-28T10:48:20;4.17;;;2.10;;
68976;SDS011;56029;52.568;13.588;2022-09-28T10:50:56;4.18;;;1.80;;
68976;SDS011;56029;52.568;13.588;2022-09-28T10:53:24;5.05;;;2.42;;
68976;SDS011;56029;52.568;13.588;2022-09-28T10:55:57;3.90;;;2.10;;
68976;SDS011;56029;52.568;13.588;2022-09-28T10:58:33;3.53;;;1.90;;
68976;SDS011;56029;52.568;13.588;2022-09-28T11:01:04;4.85;;;1.90;;
68976;SDS011;56029;52.568;13.588;2022-09-28T11:03:33;1.80;;;1.52;;
68976;SDS011;56029;52.568;13.588;2022-09-28T11:06:21;3.28;;;1.88;;
68976;SDS011;56029;52.568;13.588;2022-09-28T11:08:52;3.58;;;2.00;;
68976;SDS011;56029;52.568;13.588;2022-09-28T11:11:21;2.60;;;1.90;;
68976;SDS011;56029;52.568;13.588;2022-09-28T11:13:48;2.50;;;1.60;;
68976;SDS011;56029;52.568;13.588;2022-09-28T11:16:25;4.43;;;1.80;;
68976;SDS011;56029;52.568;13.588;2022-09-28T11:18:56;3.55;;;1.90;;
68976;SDS011;56029;52.568;13.588;2022-09-28T11:21:27;2.58;;;1.80;;
68976;SDS011;56029;52.568;13.588;2022-09-28T11:24:17;4.67;;;2.00;;
68976;SDS011;56029;52.568;13.588;2022-09-28T11:26:48;3.08;;;1.67;;
68976;SDS011;56029;52.568;13.588;2022-09-28T11:29:18;3.13;;;2.08;;
68976;SDS011;56029;52.568;13.588;2022-09-28T11:31:58;3.60;;;1.98;;
68976;SDS011;56029;52.568;13.588;2022-09-28T11:34:28;4.10;;;2.30;;
68976;SDS011;56029;52.568;13.588;2022-09-28T11:39:44;4.82;;;2.70;;
68976;SDS011;56029;52.568;13.588;2022-09-28T11:45:16;3.67;;;2.40;;
68976;SDS011;56029;52.568;13.588;2022-09-28T11:48:06;5.00;;;2.67;;
68976;SDS011;56029;52.568;13.588;2022-09-28T11:50:43;3.90;;;2.30;;
68976;SDS011;56029;52.568;13.588;2022-09-28T11:56:17;3.30;;;1.90;;
68976;SDS011;56029;52.568;13.588;2022-09-28T11:58:58;3.05;;;1.90;;
68976;SDS011;56029;52.568;13.588;2022-09-28T12:01:33;3.13;;;1.77;;
68976;SDS011;56029;52.568;13.588;2022-09-28T12:04:09;3.03;;;2.00;;
68976;SDS011;56029;52.568;13.588;2022-09-28T12:06:58;3.05;;;2.00;;
68976;SDS011;56029;52.568;13.588;2022-09-28T12:09:38;2.70;;;1.95;;
68976;SDS011;56029;52.568;13.588;2022-09-28T12:12:16;4.20;;;1.95;;
68976;SDS011;56029;52.568;13.588;2022-09-28T12:14:46;2.92;;;1.65;;
68976;SDS011;56029;52.568;13.588;2022-09-28T12:17:17;2.60;;;1.60;;
68976;SDS011;56029;52.568;13.588;2022-09-28T12:19:48;2.55;;;1.70;;
68976;SDS011;56029;52.568;13.588;2022-09-28T12:22:21;2.70;;;1.70;;
68976;SDS011;56029;52.568;13.588;2022-09-28T12:24:51;3.22;;;1.90;;
68976;SDS011;56029;52.568;13.588;2022-09-28T12:27:20;2.38;;;1.70;;
68976;SDS011;56029;52.568;13.588;2022-09-28T12:29:56;4.10;;;1.60;;
68976;SDS011;56029;52.568;13.588;2022-09-28T12:32:37;3.67;;;1.67;;
68976;SDS011;56029;52.568;13.588;2022-09-28T12:35:11;3.25;;;1.70;;
68976;SDS011;56029;52.568;13.588;2022-09-28T12:40:23;2.90;;;1.90;;
68976;SDS011;56029;52.568;13.588;2022-09-28T12:43:17;3.40;;;1.70;;
68976;SDS011;56029;52.568;13.588;2022-09-28T12:49:15;2.55;;;1.60;;
68976;SDS011;56029;52.568;13.588;2022-09-28T12:54:12;3.08;;;1.77;;
68976;SDS011;56029;52.568;13.588;2022-09-28T12:56:56;3.60;;;2.00;;
68976;SDS011;56029;52.568;13.588;2022-09-28T13:02:37;3.97;;;1.80;;
68976;SDS011;56029;52.568;13.588;2022-09-28T13:13:43;3.00;;;1.67;;
68976;SDS011;56029;52.568;13.588;2022-09-28T13:19:05;1.92;;;1.40;;
68976;SDS011;56029;52.568;13.588;2022-09-28T13:21:56;2.65;;;1.50;;
68976;SDS011;56029;52.568;13.588;2022-09-28T13:24:25;3.23;;;1.50;;
68976;SDS011;56029;52.568;13.588;2022-09-28T13:26:55;2.72;;;1.48;;
68976;SDS011;56029;52.568;13.588;2022-09-28T13:29:27;1.98;;;1.50;;
68976;SDS011;56029;52.568;13.588;2022-09-28T13:31:53;2.40;;;1.60;;
68976;SDS011;56029;52.568;13.588;2022-09-28T13:34:26;3.60;;;1.50;;
68976;SDS011;56029;52.568;13.588;2022-09-28T13:37:07;3.15;;;1.58;;
68976;SDS011;56029;52.568;13.588;2022-09-28T13:42:11;2.73;;;1.30;;
68976;SDS011;56029;52.568;13.588;2022-09-28T13:44:51;2.42;;;1.33;;
68976;SDS011;56029;52.568;13.588;2022-09-28T13:50:17;2.45;;;1.48;;
68976;SDS011;56029;52.568;13.588;2022-09-28T13:53:10;3.37;;;1.83;;
68976;SDS011;56029;52.568;13.588;2022-09-28T13:58:25;2.38;;;1.60;;
68976;SDS011;56029;52.568;13.588;2022-09-28T14:01:10;3.10;;;1.47;;
68976;SDS011;56029;52.568;13.588;2022-09-28T14:03:42;2.47;;;1.33;;
68976;SDS011;56029;52.568;13.588;2022-09-28T14:06:26;3.05;;;1.50;;
68976;SDS011;56029;52.568;13.588;2022-09-28T14:11:55;2.28;;;1.50;;
68976;SDS011;56029;52.568;13.588;2022-09-28T14:14:30;2.37;;;1.50;;
68976;SDS011;56029;52.568;13.588;2022-09-28T14:20:05;2.97;;;1.75;;
68976;SDS011;56029;52.568;13.588;2022-09-28T14:22:38;2.35;;;1.50;;
68976;SDS011;56029;52.568;13.588;2022-09-28T14:25:23;2.75;;;1.50;;
68976;SDS011;56029;52.568;13.588;2022-09-28T14:35:52;2.22;;;1.55;;
68976;SDS011;56029;52.568;13.588;2022-09-28T14:38:22;2.95;;;1.70;;
68976;SDS011;56029;52.568;13.588;2022-09-28T14:53:52;2.70;;;1.53;;
68976;SDS011;56029;52.568;13.588;2022-09-28T14:56:24;3.05;;;1.73;;
68976;SDS011;56029;52.568;13.588;2022-09-28T14:58:52;3.42;;;1.60;;
68976;SDS011;56029;52.568;13.588;2022-09-28T15:01:21;3.85;;;1.80;;
68976;SDS011;56029;52.568;13.588;2022-09-28T15:03:55;3.25;;;1.67;;
68976;SDS011;56029;52.568;13.588;2022-09-28T15:06:24;2.83;;;1.70;;
68976;SDS011;56029;52.568;13.588;2022-09-28T15:08:50;3.15;;;1.70;;
68976;SDS011;56029;52.568;13.588;2022-09-28T15:11:18;2.97;;;1.65;;
68976;SDS011;56029;52.568;13.588;2022-09-28T15:13:46;3.40;;;1.85;;
68976;SDS011;56029;52.568;13.588;2022-09-28T15:16:17;2.60;;;1.70;;
68976;SDS011;56029;52.568;13.588;2022-09-28T15:21:40;4.82;;;2.67;;
68976;SDS011;56029;52.568;13.588;2022-09-28T15:24:26;3.50;;;1.70;;
68976;SDS011;56029;52.568;13.588;2022-09-28T15:26:56;3.08;;;1.70;;
68976;SDS011;56029;52.568;13.588;2022-09-28T15:29:22;2.53;;;1.70;;
68976;SDS011;56029;52.568;13.588;2022-09-28T15:31:49;3.17;;;2.00;;
68976;SDS011;56029;52.568;13.588;2022-09-28T15:34:25;3.78;;;2.00;;
68976;SDS011;56029;52.568;13.588;2022-09-28T15:37:14;4.63;;;2.50;;
68976;SDS011;56029;52.568;13.588;2022-09-28T15:39:41;4.28;;;2.58;;
68976;SDS011;56029;52.568;13.588;2022-09-28T15:42:07;5.28;;;2.50;;
68976;SDS011;56029;52.568;13.588;2022-09-28T15:44:33;3.00;;;2.03;;
68976;SDS011;56029;52.568;13.588;2022-09-28T15:47:11;3.70;;;1.73;;
68976;SDS011;56029;52.568;13.588;2022-09-28T15:52:20;2.67;;;1.70;;
68976;SDS011;56029;52.568;13.588;2022-09-28T15:54:50;3.00;;;1.88;;
68976;SDS011;56029;52.568;13.588;2022-09-28T15:59:57;3.73;;;2.13;;
68976;SDS011;56029;52.568;13.588;2022-09-28T16:02:23;3.55;;;1.60;;
68976;SDS011;56029;52.568;13.588;2022-09-28T16:04:51;2.63;;;1.65;;
68976;SDS011;56029;52.568;13.588;2022-09-28T16:07:35;3.80;;;2.13;;
68976;SDS011;56029;52.568;13.588;2022-09-28T16:15:13;3.03;;;2.00;;
68976;SDS011;56029;52.568;13.588;2022-09-28T16:17:42;3.88;;;1.90;;
68976;SDS011;56029;52.568;13.588;2022-09-28T16:22:54;3.58;;;2.40;;
68976;SDS011;56029;52.568;13.588;2022-09-28T16:25:22;4.10;;;2.30;;
68976;SDS011;56029;52.568;13.588;2022-09-28T16:27:50;4.05;;;2.47;;
68976;SDS011;56029;52.568;13.588;2022-09-28T16:30:19;4.47;;;2.50;;
68976;SDS011;56029;52.568;13.588;2022-09-28T16:35:30;4.65;;;2.58;;
68976;SDS011;56029;52.568;13.588;2022-09-28T16:38:00;4.40;;;2.70;;
68976;SDS011;56029;52.568;13.588;2022-09-28T16:40:37;7.20;;;3.33;;
68976;SDS011;56029;52.568;13.588;2022-09-28T16:43:05;8.35;;;3.67;;
68976;SDS011;56029;52.568;13.588;2022-09-28T16:45:32;13.20;;;6.03;;
68976;SDS011;56029;52.568;13.588;2022-09-28T16:47:59;8.38;;;4.50;;
68976;SDS011;56029;52.568;13.588;2022-09-28T16:50:25;11.47;;;5.37;;
68976;SDS011;56029;52.568;13.588;2022-09-28T16:52:56;7.28;;;3.85;;
68976;SDS011;56029;52.568;13.588;2022-09-28T16:55:42;6.97;;;3.40;;
68976;SDS011;56029;52.568;13.588;2022-09-28T16:58:08;4.57;;;2.97;;
68976;SDS011;56029;52.568;13.588;2022-09-28T17:00:34;5.50;;;2.63;;
68976;SDS011;56029;52.568;13.588;2022-09-28T17:02:59;10.03;;;4.60;;
68976;SDS011;56029;52.568;13.588;2022-09-28T17:05:25;15.85;;;7.88;;
68976;SDS011;56029;52.568;13.588;2022-09-28T17:07:58;18.17;;;8.27;;
68976;SDS011;56029;52.568;13.588;2022-09-28T17:13:04;9.18;;;5.43;;
68976;SDS011;56029;52.568;13.588;2022-09-28T17:15:30;8.77;;;4.93;;
68976;SDS011;56029;52.568;13.588;2022-09-28T17:17:56;9.30;;;5.32;;